Time;durP1;ratioP1;P1;durP2;ratioP2;P2;SDS_P1;SDS_P2;PMS_P1;PMS_P2;Temp;Humidity;BMP_temperature;BMP_pressure;BME280_temperature;BME280_humidity;BME280_pressure;Samples;Min_cycle;Max_cycle;Signal;HPM_P1;HPM_P2
2022/11/18 00:02:53;;;;;;;15.20;7.55;;;;;;;;;;8259198;28;20410;-92
2022/11/18 00:06:58;;;;;;;18.60;7.65;;;;;;;;;;8258085;28;20061;-92
2022/11/18 00:11:12;;;;;;;19.48;9.13;;;;;;;;;;8230921;28;20050;-93
2022/11/18 00:16:08;;;;;;;18.17;7.78;;;;;;;;;;8229729;28;20491;-92
2022/11/18 00:20:18;;;;;;;16.92;8.27;;;;;;;;;;8223899;28;20122;-91
2022/11/18 00:24:20;;;;;;;20.17;8.50;;;;;;;;;;8236454;28;20051;-91
2022/11/18 00:28:23;;;;;;;19.08;7.88;;;;;;;;;;8216995;28;20376;-93
2022/11/18 00:32:28;;;;;;;19.83;9.10;;;;;;;;;;8237250;28;20050;-93
2022/11/18 00:36:34;;;;;;;11.73;5.90;;;;;;;;;;8237561;28;20050;-93
2022/11/18 00:40:40;;;;;;;15.73;6.95;;;;;;;;;;8232384;28;20093;-92
2022/11/18 00:45:15;;;;;;;16.15;8.63;;;;;;;;;;8230961;28;20090;-92
2022/11/18 00:49:34;;;;;;;16.17;8.48;;;;;;;;;;8237363;28;20100;-92
2022/11/18 00:53:37;;;;;;;17.30;8.65;;;;;;;;;;8236204;28;20478;-93
2022/11/18 00:57:43;;;;;;;20.95;8.75;;;;;;;;;;8234317;28;20089;-92
2022/11/18 01:01:48;;;;;;;20.17;9.63;;;;;;;;;;8236694;28;20047;-92
2022/11/18 01:06:07;;;;;;;15.93;6.70;;;;;;;;;;8236717;28;20057;-93
2022/11/18 01:10:10;;;;;;;20.20;9.07;;;;;;;;;;8229796;28;20074;-92
2022/11/18 01:14:14;;;;;;;19.13;7.97;;;;;;;;;;8231064;28;20051;-93
2022/11/18 01:18:18;;;;;;;21.77;9.98;;;;;;;;;;8236959;28;20043;-94
2022/11/18 01:22:23;;;;;;;18.85;10.13;;;;;;;;;;8236001;28;20051;-93
2022/11/18 01:26:28;;;;;;;18.98;7.15;;;;;;;;;;8235618;28;20442;-94
2022/11/18 01:30:38;;;;;;;18.65;9.52;;;;;;;;;;8236290;28;20546;-93
2022/11/18 01:34:53;;;;;;;22.42;10.00;;;;;;;;;;8224274;28;20043;-93
2022/11/18 01:38:57;;;;;;;22.38;9.70;;;;;;;;;;8233693;28;20077;-94
2022/11/18 01:43:02;;;;;;;24.00;10.02;;;;;;;;;;8235797;28;20050;-94
2022/11/18 01:47:05;;;;;;;24.80;10.50;;;;;;;;;;8235187;28;20089;-92
2022/11/18 01:51:13;;;;;;;16.60;8.60;;;;;;;;;;8235403;28;20112;-93
2022/11/18 01:55:20;;;;;;;17.83;8.98;;;;;;;;;;8235445;28;20046;-93
2022/11/18 01:59:33;;;;;;;20.05;9.02;;;;;;;;;;8235229;28;20079;-93
2022/11/18 02:03:37;;;;;;;13.38;7.80;;;;;;;;;;8234931;28;20094;-92
2022/11/18 02:07:55;;;;;;;21.05;9.27;;;;;;;;;;8232372;28;20046;-92
2022/11/18 02:11:59;;;;;;;19.67;8.88;;;;;;;;;;8224315;28;20047;-93
2022/11/18 02:16:10;;;;;;;21.55;10.23;;;;;;;;;;8234957;28;20042;-94
2022/11/18 02:20:31;;;;;;;19.37;7.93;;;;;;;;;;8235488;28;20042;-92
2022/11/18 02:24:46;;;;;;;18.42;8.77;;;;;;;;;;8233112;28;20542;-92
2022/11/18 02:29:11;;;;;;;23.48;9.45;;;;;;;;;;8232222;28;20051;-92
2022/11/18 02:33:18;;;;;;;22.95;9.93;;;;;;;;;;8229245;28;20066;-92
2022/11/18 02:41:55;;;;;;;18.67;9.45;;;;;;;;;;8232894;28;20055;-92
2022/11/18 02:46:02;;;;;;;20.10;8.90;;;;;;;;;;8233442;28;20053;-92
2022/11/18 02:50:11;;;;;;;18.63;8.45;;;;;;;;;;8233191;28;20047;-91
2022/11/18 02:54:51;;;;;;;18.55;8.60;;;;;;;;;;8232937;28;20046;-91
2022/11/18 02:58:55;;;;;;;18.08;8.18;;;;;;;;;;8215608;28;20050;-92
2022/11/18 03:03:42;;;;;;;8.27;3.92;;;;;;;;;;8232647;28;20046;-91
2022/11/18 03:07:59;;;;;;;16.25;7.82;;;;;;;;;;8232389;28;20051;-93
2022/11/18 03:12:19;;;;;;;14.73;7.40;;;;;;;;;;8233078;28;20070;-92
2022/11/18 03:16:34;;;;;;;15.20;8.30;;;;;;;;;;8233310;28;20412;-92
2022/11/18 03:20:40;;;;;;;10.38;5.57;;;;;;;;;;8233133;28;20043;-93
2022/11/18 03:24:50;;;;;;;18.52;8.90;;;;;;;;;;8233313;28;20501;-92
2022/11/18 03:29:11;;;;;;;24.35;9.30;;;;;;;;;;8232864;28;20043;-92
2022/11/18 03:37:56;;;;;;;7.32;4.70;;;;;;;;;;8232466;28;20113;-92
2022/11/18 03:42:14;;;;;;;16.77;8.85;;;;;;;;;;8233006;28;20151;-91
2022/11/18 03:46:19;;;;;;;18.95;8.80;;;;;;;;;;8202711;28;20047;-93
2022/11/18 03:50:26;;;;;;;14.50;7.05;;;;;;;;;;8231705;28;20498;-91
2022/11/18 03:54:43;;;;;;;19.13;9.90;;;;;;;;;;8221409;28;20074;-93
2022/11/18 03:58:53;;;;;;;19.05;9.00;;;;;;;;;;8238580;28;20050;-91
2022/11/18 04:03:02;;;;;;;6.28;4.35;;;;;;;;;;8238420;28;20046;-92
2022/11/18 04:07:33;;;;;;;18.27;9.10;;;;;;;;;;8235128;28;20487;-92
2022/11/18 04:12:05;;;;;;;16.42;8.30;;;;;;;;;;8228144;28;20054;-93
2022/11/18 04:16:11;;;;;;;14.45;7.25;;;;;;;;;;8237712;28;20490;-92
2022/11/18 04:20:22;;;;;;;14.48;7.90;;;;;;;;;;8237776;28;20058;-92
2022/11/18 04:24:24;;;;;;;19.10;9.27;;;;;;;;;;8224232;28;20046;-92
2022/11/18 04:28:41;;;;;;;20.25;8.35;;;;;;;;;;8230696;28;20039;-92
2022/11/18 04:32:43;;;;;;;16.95;8.13;;;;;;;;;;8237411;28;20487;-93
2022/11/18 04:36:46;;;;;;;16.67;7.00;;;;;;;;;;8236982;28;20073;-93
2022/11/18 04:40:49;;;;;;;12.35;6.65;;;;;;;;;;8237067;28;20047;-93
2022/11/18 04:44:56;;;;;;;8.77;4.97;;;;;;;;;;8228364;28;20050;-92
2022/11/18 04:48:59;;;;;;;15.15;7.93;;;;;;;;;;8236179;28;20097;-93
2022/11/18 04:53:01;;;;;;;9.15;5.00;;;;;;;;;;8236704;28;20467;-92
2022/11/18 04:57:19;;;;;;;14.95;6.80;;;;;;;;;;8236488;28;20047;-92
2022/11/18 05:01:22;;;;;;;7.03;4.30;;;;;;;;;;8232678;28;20043;-93
2022/11/18 05:05:25;;;;;;;13.45;6.30;;;;;;;;;;8228241;28;20105;-92
2022/11/18 05:09:28;;;;;;;12.48;6.47;;;;;;;;;;8251181;28;20097;-92
2022/11/18 05:13:36;;;;;;;18.40;7.93;;;;;;;;;;8254467;28;20566;-92
2022/11/18 05:17:40;;;;;;;5.90;3.13;;;;;;;;;;8247356;28;20046;-92
2022/11/18 05:21:57;;;;;;;13.05;6.82;;;;;;;;;;8210496;28;20055;-92
2022/11/18 05:26:04;;;;;;;14.40;7.55;;;;;;;;;;8226623;28;20133;-91
2022/11/18 05:30:16;;;;;;;9.98;4.93;;;;;;;;;;8229987;28;20435;-91
2022/11/18 05:34:23;;;;;;;12.90;5.72;;;;;;;;;;8229156;28;20046;-91
2022/11/18 05:38:25;;;;;;;6.13;4.20;;;;;;;;;;8232148;28;20055;-91
2022/11/18 05:47:00;;;;;;;;;;;;;;;;;;;;;
2022/11/18 05:51:06;;;;;;;16.73;8.20;;;;;;;;;;8234569;28;20043;-91
2022/11/18 05:55:17;;;;;;;13.52;7.88;;;;;;;;;;8234846;28;20123;-91
2022/11/18 05:59:20;;;;;;;18.50;9.27;;;;;;;;;;8234046;28;20035;-91
2022/11/18 06:03:31;;;;;;;22.83;10.77;;;;;;;;;;8233947;28;20294;-92
2022/11/18 06:07:39;;;;;;;;;;;;;;;;;;8234356;28;20054;-91
2022/11/18 06:11:46;;;;;;;15.35;7.72;;;;;;;;;;8233121;28;19922;-91
2022/11/18 06:15:49;;;;;;;11.15;7.10;;;;;;;;;;8227133;28;20050;-91
2022/11/18 06:19:58;;;;;;;8.55;5.57;;;;;;;;;;8221892;28;20082;-91
2022/11/18 06:24:17;;;;;;;19.50;7.45;;;;;;;;;;8233599;28;20069;-92
2022/11/18 06:28:21;;;;;;;78.32;15.48;;;;;;;;;;8232433;28;20086;-91
2022/11/18 06:32:24;;;;;;;27.05;11.00;;;;;;;;;;8229679;28;20054;-91
2022/11/18 06:36:26;;;;;;;14.35;8.15;;;;;;;;;;8222095;28;20082;-91
2022/11/18 06:40:47;;;;;;;21.85;8.73;;;;;;;;;;8233505;28;20053;-91
2022/11/18 06:44:50;;;;;;;24.30;9.25;;;;;;;;;;8230478;28;20059;-91
2022/11/18 06:48:53;;;;;;;15.57;8.63;;;;;;;;;;8224063;28;20065;-90
2022/11/18 06:52:56;;;;;;;101.25;23.48;;;;;;;;;;8217129;28;20517;-89
2022/11/18 06:57:00;;;;;;;21.15;8.80;;;;;;;;;;8232356;28;20043;-92
2022/11/18 07:01:10;;;;;;;74.30;16.75;;;;;;;;;;8241791;28;20125;-91
2022/11/18 07:05:12;;;;;;;22.23;10.50;;;;;;;;;;8234876;28;21740;-94
2022/11/18 07:09:15;;;;;;;20.73;8.13;;;;;;;;;;8221259;28;20105;-92
2022/11/18 07:13:19;;;;;;;40.45;13.10;;;;;;;;;;8236370;28;20043;-93
2022/11/18 07:17:22;;;;;;;16.70;9.10;;;;;;;;;;8241826;28;20055;-91
2022/11/18 07:21:26;;;;;;;52.20;15.35;;;;;;;;;;8243220;28;20474;-92
2022/11/18 07:25:29;;;;;;;15.88;8.45;;;;;;;;;;8247932;28;20047;-92
2022/11/18 07:29:33;;;;;;;16.92;8.73;;;;;;;;;;8243273;28;20043;-88
2022/11/18 07:33:38;;;;;;;16.15;9.02;;;;;;;;;;8239476;28;20047;-88
2022/11/18 07:37:41;;;;;;;18.33;8.85;;;;;;;;;;8228733;28;20062;-93
2022/11/18 07:41:43;;;;;;;15.10;8.25;;;;;;;;;;8228687;28;20050;-91
2022/11/18 07:45:47;;;;;;;20.02;9.85;;;;;;;;;;8233791;28;20043;-92
2022/11/18 07:49:50;;;;;;;17.70;9.65;;;;;;;;;;8238474;28;20050;-91
2022/11/18 07:53:53;;;;;;;16.52;8.90;;;;;;;;;;8234604;28;20488;-92
2022/11/18 07:57:56;;;;;;;18.08;9.38;;;;;;;;;;8218508;28;20051;-92
2022/11/18 08:02:00;;;;;;;21.15;10.05;;;;;;;;;;8236598;28;20462;-92
2022/11/18 08:06:21;;;;;;;19.08;9.90;;;;;;;;;;8197982;28;20053;-89
2022/11/18 08:10:25;;;;;;;21.67;8.90;;;;;;;;;;8242389;28;20422;-89
2022/11/18 08:14:29;;;;;;;15.80;9.10;;;;;;;;;;8217405;28;20059;-88
2022/11/18 08:18:33;;;;;;;16.92;8.63;;;;;;;;;;8223546;28;20053;-90
2022/11/18 08:22:35;;;;;;;24.60;11.02;;;;;;;;;;8232905;28;20043;-90
2022/11/18 08:26:38;;;;;;;18.23;9.38;;;;;;;;;;8236097;28;20069;-91
2022/11/18 08:30:41;;;;;;;21.63;9.80;;;;;;;;;;8216446;28;20046;-93
2022/11/18 08:34:48;;;;;;;26.98;11.95;;;;;;;;;;8214265;28;20046;-92
2022/11/18 08:39:17;;;;;;;24.60;10.63;;;;;;;;;;8219089;28;20155;-93
2022/11/18 08:43:29;;;;;;;23.45;11.32;;;;;;;;;;8234483;28;20050;-92
2022/11/18 08:47:40;;;;;;;24.13;9.85;;;;;;;;;;8223771;28;20102;-92
2022/11/18 08:51:58;;;;;;;22.95;10.75;;;;;;;;;;8220959;28;20483;-90
2022/11/18 08:56:20;;;;;;;26.70;11.57;;;;;;;;;;8232957;28;20427;-93
2022/11/18 09:00:24;;;;;;;24.98;11.85;;;;;;;;;;8219363;28;20415;-89
2022/11/18 09:04:32;;;;;;;16.05;8.65;;;;;;;;;;8221205;28;20102;-90
2022/11/18 09:08:46;;;;;;;23.00;11.60;;;;;;;;;;8219264;28;20074;-90
2022/11/18 09:12:48;;;;;;;14.88;8.05;;;;;;;;;;8207022;28;20101;-91
2022/11/18 09:16:51;;;;;;;23.35;12.00;;;;;;;;;;8231855;28;20486;-91
2022/11/18 09:21:05;;;;;;;26.90;12.70;;;;;;;;;;8231243;28;20648;-92
2022/11/18 09:25:11;;;;;;;24.55;12.82;;;;;;;;;;8228647;28;20049;-92
2022/11/18 09:29:17;;;;;;;23.63;11.95;;;;;;;;;;8237121;28;20087;-91
2022/11/18 09:33:24;;;;;;;15.18;7.63;;;;;;;;;;8188596;28;20062;-89
2022/11/18 09:37:27;;;;;;;20.60;10.27;;;;;;;;;;8260487;23;20050;-86
2022/11/18 09:46:32;;;;;;;28.45;12.00;;;;;;;;;;8255128;28;20426;-93
2022/11/18 09:50:38;;;;;;;26.00;11.82;;;;;;;;;;8273864;28;20144;-91
2022/11/18 09:54:42;;;;;;;23.73;11.90;;;;;;;;;;8291974;28;20053;-90
2022/11/18 09:58:49;;;;;;;43.00;17.27;;;;;;;;;;8302165;28;20046;-91
2022/11/18 10:03:02;;;;;;;30.77;13.77;;;;;;;;;;8291998;28;20065;-91
2022/11/18 10:07:15;;;;;;;24.35;10.80;;;;;;;;;;8271909;28;20054;-88
2022/11/18 10:16:15;;;;;;;23.35;9.65;;;;;;;;;;8294354;28;20046;-87
2022/11/18 10:20:33;;;;;;;20.70;10.50;;;;;;;;;;8299053;28;20071;-89
2022/11/18 10:24:39;;;;;;;27.10;12.43;;;;;;;;;;8296170;28;20045;-90
2022/11/18 10:28:41;;;;;;;30.75;13.43;;;;;;;;;;8300637;28;20050;-90
2022/11/18 10:32:56;;;;;;;26.95;10.85;;;;;;;;;;8293493;28;20495;-88
2022/11/18 10:37:00;;;;;;;22.67;11.65;;;;;;;;;;8296939;28;20042;-91
2022/11/18 10:41:06;;;;;;;18.60;10.00;;;;;;;;;;8291707;28;20033;-95
2022/11/18 10:45:18;;;;;;;27.60;12.27;;;;;;;;;;8309659;28;20034;-93
2022/11/18 10:49:23;;;;;;;10.55;5.35;;;;;;;;;;8299220;28;20056;-93
2022/11/18 10:53:51;;;;;;;19.67;9.80;;;;;;;;;;8299268;28;20065;-91
2022/11/18 10:58:14;;;;;;;34.17;14.73;;;;;;;;;;8305306;28;20141;-95
2022/11/18 11:02:35;;;;;;;27.52;13.15;;;;;;;;;;8287021;28;20066;-90
2022/11/18 11:06:46;;;;;;;21.92;10.52;;;;;;;;;;8290620;28;20049;-89
2022/11/18 11:10:56;;;;;;;28.98;13.15;;;;;;;;;;8284339;28;20153;-90
2022/11/18 11:15:32;;;;;;;20.45;8.40;;;;;;;;;;8281761;28;20073;-91
2022/11/18 11:19:42;;;;;;;;;;;;;;;;;;8293840;28;20042;-92
2022/11/18 11:23:48;;;;;;;28.40;12.43;;;;;;;;;;8290334;28;20360;-88
2022/11/18 11:27:56;;;;;;;21.30;10.68;;;;;;;;;;8289150;28;20049;-91
2022/11/18 11:32:38;;;;;;;30.52;12.10;;;;;;;;;;8281504;28;20096;-92
2022/11/18 11:36:49;;;;;;;30.77;13.52;;;;;;;;;;8292283;28;20096;-88
2022/11/18 11:41:01;;;;;;;29.50;13.07;;;;;;;;;;8283157;28;20042;-93
2022/11/18 11:45:25;;;;;;;29.02;14.63;;;;;;;;;;8286696;28;20526;-90
2022/11/18 11:49:44;;;;;;;28.95;13.23;;;;;;;;;;8288029;28;20053;-89
2022/11/18 11:54:12;;;;;;;38.38;13.02;;;;;;;;;;8287167;28;20050;-91
2022/11/18 11:58:32;;;;;;;16.35;8.77;;;;;;;;;;8290409;28;20223;-90
2022/11/18 12:03:04;;;;;;;25.40;10.35;;;;;;;;;;8278602;28;20050;-91
2022/11/18 12:07:16;;;;;;;25.55;10.85;;;;;;;;;;8287696;28;20080;-90
2022/11/18 12:11:27;;;;;;;26.02;10.55;;;;;;;;;;8278535;28;20073;-92
2022/11/18 12:15:45;;;;;;;21.45;9.85;;;;;;;;;;8298739;28;20045;-90
2022/11/18 12:19:48;;;;;;;24.23;10.88;;;;;;;;;;8279899;28;20053;-86
2022/11/18 12:24:29;;;;;;;17.15;7.72;;;;;;;;;;8296315;28;20042;-90
2022/11/18 12:28:36;;;;;;;19.83;9.25;;;;;;;;;;8299182;28;20062;-92
2022/11/18 12:32:42;;;;;;;25.80;8.90;;;;;;;;;;8288685;28;20104;-86
2022/11/18 12:36:47;;;;;;;16.23;7.60;;;;;;;;;;8285892;28;20062;-87
2022/11/18 12:40:49;;;;;;;10.43;4.88;;;;;;;;;;8294931;28;20042;-86
2022/11/18 12:44:53;;;;;;;11.55;5.05;;;;;;;;;;8296007;28;20042;-85
2022/11/18 12:48:58;;;;;;;8.27;4.35;;;;;;;;;;8298991;28;20066;-86
2022/11/18 12:53:02;;;;;;;16.15;6.45;;;;;;;;;;8299418;28;20100;-91
2022/11/18 12:57:24;;;;;;;13.70;6.18;;;;;;;;;;8311547;28;20077;-86
2022/11/18 13:01:34;;;;;;;18.10;7.67;;;;;;;;;;8302575;28;20038;-93
2022/11/18 13:05:41;;;;;;;32.08;11.45;;;;;;;;;;8302210;28;20718;-90
2022/11/18 13:09:48;;;;;;;18.25;9.00;;;;;;;;;;8282380;28;20089;-85
2022/11/18 13:17:50;;;;;;;6.75;4.55;;;;;;;;;;8262518;28;20620;-88
2022/11/18 13:18:18;;;;;;;4.18;3.00;;;;;;;;;;8279095;28;20469;-88
2022/11/18 13:26:45;;;;;;;12.77;6.03;;;;;;;;;;8291091;28;20099;-87
2022/11/18 13:30:52;;;;;;;14.32;6.20;;;;;;;;;;8290884;28;20045;-88
2022/11/18 13:34:57;;;;;;;8.60;4.60;;;;;;;;;;8286684;28;20065;-88
2022/11/18 13:39:04;;;;;;;8.23;4.15;;;;;;;;;;8301460;28;20042;-92
2022/11/18 13:43:11;;;;;;;12.93;5.72;;;;;;;;;;8283924;28;20818;-91
2022/11/18 13:47:24;;;;;;;12.90;6.13;;;;;;;;;;8304986;28;20043;-92
2022/11/18 13:51:27;;;;;;;6.30;3.20;;;;;;;;;;8298888;28;20555;-91
2022/11/18 13:55:38;;;;;;;19.30;7.40;;;;;;;;;;8299134;28;20042;-93
2022/11/18 13:59:42;;;;;;;23.73;9.48;;;;;;;;;;8300089;28;20038;-92
2022/11/18 14:03:50;;;;;;;10.82;5.32;;;;;;;;;;8298800;28;20050;-92
2022/11/18 14:08:01;;;;;;;16.70;5.90;;;;;;;;;;8296542;28;20177;-92
2022/11/18 14:12:21;;;;;;;19.85;7.47;;;;;;;;;;8290734;28;20050;-93
2022/11/18 14:16:34;;;;;;;10.40;5.03;;;;;;;;;;8304235;28;20046;-91
2022/11/18 14:20:36;;;;;;;;;;;;;;;;;;8295983;28;20052;-88
2022/11/18 14:24:40;;;;;;;8.00;3.78;;;;;;;;;;8272302;28;19925;-91
2022/11/18 14:28:55;;;;;;;10.63;4.68;;;;;;;;;;8293156;28;20049;-92
2022/11/18 14:33:21;;;;;;;13.15;5.22;;;;;;;;;;8293149;28;20053;-87
2022/11/18 14:37:42;;;;;;;7.85;4.28;;;;;;;;;;8273458;28;20093;-89
2022/11/18 14:42:00;;;;;;;17.50;5.57;;;;;;;;;;8241697;23;20078;-88
2022/11/18 14:46:22;;;;;;;23.08;8.98;;;;;;;;;;8334688;23;20081;-89
2022/11/18 14:50:27;;;;;;;30.30;11.98;;;;;;;;;;8235004;28;20098;-87
2022/11/18 14:54:35;;;;;;;24.40;8.75;;;;;;;;;;8221156;28;20403;-89
2022/11/18 14:59:06;;;;;;;14.90;6.13;;;;;;;;;;8234489;23;20041;-87
2022/11/18 15:03:10;;;;;;;13.18;5.72;;;;;;;;;;8287554;28;20045;-87
2022/11/18 15:07:14;;;;;;;16.08;6.93;;;;;;;;;;8276263;28;20559;-86
2022/11/18 15:11:19;;;;;;;23.00;10.30;;;;;;;;;;8283961;28;20072;-86
2022/11/18 15:15:23;;;;;;;31.42;13.38;;;;;;;;;;8304684;28;20052;-87
2022/11/18 15:19:27;;;;;;;16.50;5.68;;;;;;;;;;8286746;28;20042;-87
2022/11/18 15:23:31;;;;;;;19.73;8.60;;;;;;;;;;8312475;28;20045;-90
2022/11/18 15:27:53;;;;;;;20.95;8.27;;;;;;;;;;8297759;28;20065;-89
2022/11/18 15:32:08;;;;;;;21.08;8.65;;;;;;;;;;8288855;28;20128;-87
2022/11/18 15:36:16;;;;;;;17.50;7.15;;;;;;;;;;8302192;28;20045;-87
2022/11/18 15:40:27;;;;;;;28.63;11.25;;;;;;;;;;8299307;28;20425;-86
2022/11/18 15:44:30;;;;;;;22.08;8.52;;;;;;;;;;8303113;28;20041;-88
2022/11/18 15:48:33;;;;;;;20.83;7.53;;;;;;;;;;8306556;28;20639;-88
2022/11/18 15:52:39;;;;;;;48.65;17.48;;;;;;;;;;8291130;28;20162;-90
2022/11/18 15:56:47;;;;;;;19.05;8.13;;;;;;;;;;8312882;28;20046;-95
2022/11/18 16:00:49;;;;;;;16.35;7.57;;;;;;;;;;8324170;28;20054;-88
2022/11/18 16:04:53;;;;;;;15.77;6.95;;;;;;;;;;8314190;28;20085;-88
2022/11/18 16:08:59;;;;;;;22.10;7.82;;;;;;;;;;8312791;28;20450;-88
2022/11/18 16:13:05;;;;;;;9.55;4.88;;;;;;;;;;8309356;28;20108;-87
2022/11/18 16:17:08;;;;;;;14.48;5.93;;;;;;;;;;8305283;28;20042;-91
2022/11/18 16:21:10;;;;;;;25.58;11.90;;;;;;;;;;8314243;28;20042;-90
2022/11/18 16:25:15;;;;;;;13.30;6.43;;;;;;;;;;8300905;28;20053;-89
2022/11/18 16:29:27;;;;;;;9.68;5.28;;;;;;;;;;8300885;28;20125;-93
2022/11/18 16:33:32;;;;;;;9.68;4.55;;;;;;;;;;8311781;28;20402;-94
2022/11/18 16:37:38;;;;;;;15.00;5.00;;;;;;;;;;8316446;28;20061;-89
2022/11/18 16:41:43;;;;;;;8.70;4.70;;;;;;;;;;8304748;28;20050;-94
2022/11/18 16:46:14;;;;;;;17.25;7.57;;;;;;;;;;8302026;28;21267;-88
2022/11/18 16:54:53;;;;;;;12.88;5.80;;;;;;;;;;8297608;28;20484;-89
2022/11/18 16:59:04;;;;;;;15.85;6.90;;;;;;;;;;8300458;28;20057;-87
2022/11/18 17:03:09;;;;;;;15.90;7.60;;;;;;;;;;8289343;28;20042;-88
2022/11/18 17:07:15;;;;;;;15.95;7.97;;;;;;;;;;8264785;28;20605;-88
2022/11/18 17:11:21;;;;;;;12.02;6.05;;;;;;;;;;8309449;28;20034;-87
2022/11/18 17:15:32;;;;;;;15.52;7.45;;;;;;;;;;8297668;28;20497;-93
2022/11/18 17:19:38;;;;;;;18.77;9.07;;;;;;;;;;8290058;28;20497;-89
2022/11/18 17:23:44;;;;;;;22.80;8.30;;;;;;;;;;8267570;28;20100;-92
2022/11/18 17:27:48;;;;;;;19.63;9.43;;;;;;;;;;8283759;28;20046;-87
2022/11/18 17:31:53;;;;;;;22.25;8.13;;;;;;;;;;8288100;28;20052;-91
2022/11/18 17:36:00;;;;;;;17.33;7.50;;;;;;;;;;8285209;28;20042;-88
2022/11/18 17:40:04;;;;;;;19.77;9.93;;;;;;;;;;8285575;28;20045;-87
2022/11/18 17:44:10;;;;;;;22.73;11.35;;;;;;;;;;8297096;28;20113;-94
2022/11/18 17:48:18;;;;;;;28.13;12.07;;;;;;;;;;8306170;28;20042;-92
2022/11/18 17:52:23;;;;;;;49.38;19.20;;;;;;;;;;8278126;28;20049;-92
2022/11/18 17:56:26;;;;;;;36.83;17.58;;;;;;;;;;8301048;28;20104;-92
2022/11/18 18:00:30;;;;;;;37.92;17.48;;;;;;;;;;8300181;28;20050;-93
2022/11/18 18:04:35;;;;;;;48.03;22.08;;;;;;;;;;8299211;28;20100;-94
2022/11/18 18:08:41;;;;;;;57.38;27.83;;;;;;;;;;8299988;28;20486;-90
2022/11/18 18:17:07;;;;;;;55.50;23.70;;;;;;;;;;8253400;28;20056;-91
2022/11/18 18:21:11;;;;;;;63.25;28.42;;;;;;;;;;8265112;28;20465;-93
2022/11/18 18:25:14;;;;;;;67.88;28.80;;;;;;;;;;8296823;28;20049;-91
2022/11/18 18:29:16;;;;;;;68.53;28.70;;;;;;;;;;8294620;28;20477;-91
2022/11/18 18:33:19;;;;;;;53.38;23.65;;;;;;;;;;8289093;28;20038;-93
2022/11/18 18:37:24;;;;;;;61.67;25.13;;;;;;;;;;8283101;28;20050;-93
2022/11/18 18:41:37;;;;;;;60.08;26.55;;;;;;;;;;8277221;28;20474;-93
2022/11/18 18:50:06;;;;;;;45.83;19.85;;;;;;;;;;8277602;28;20100;-93
2022/11/18 18:54:15;;;;;;;55.95;24.10;;;;;;;;;;8291798;28;20445;-93
2022/11/18 18:58:19;;;;;;;37.35;18.25;;;;;;;;;;8288476;28;20045;-90
2022/11/18 19:02:24;;;;;;;40.67;18.63;;;;;;;;;;8084210;28;20375;-95
2022/11/18 19:06:29;;;;;;;61.63;23.73;;;;;;;;;;8235506;28;20047;-93
2022/11/18 19:10:48;;;;;;;74.07;25.60;;;;;;;;;;8263661;28;20494;-92
2022/11/18 19:14:57;;;;;;;76.22;27.48;;;;;;;;;;8266094;28;20458;-93
2022/11/18 19:19:01;;;;;;;73.22;29.88;;;;;;;;;;8272689;28;20042;-94
2022/11/18 19:23:13;;;;;;;131.43;50.47;;;;;;;;;;8265852;28;20470;-94
2022/11/18 19:27:20;;;;;;;136.25;47.13;;;;;;;;;;8276225;28;20066;-93
2022/11/18 19:31:31;;;;;;;116.93;39.72;;;;;;;;;;8288097;28;20061;-91
2022/11/18 19:35:34;;;;;;;98.50;30.60;;;;;;;;;;8260880;28;20085;-90
2022/11/18 19:39:38;;;;;;;72.65;25.83;;;;;;;;;;8261172;28;20078;-93
2022/11/18 19:43:42;;;;;;;73.47;25.35;;;;;;;;;;8280910;28;20073;-89
2022/11/18 19:47:48;;;;;;;83.28;30.40;;;;;;;;;;8260197;28;20050;-93
2022/11/18 19:52:06;;;;;;;117.03;39.67;;;;;;;;;;8285956;28;20077;-94
2022/11/18 19:56:26;;;;;;;127.60;36.60;;;;;;;;;;8270233;28;20043;-95
2022/11/18 20:00:31;;;;;;;107.20;37.80;;;;;;;;;;8292043;28;20080;-91
2022/11/18 20:04:34;;;;;;;83.35;30.90;;;;;;;;;;8305334;28;20046;-91
2022/11/18 20:08:40;;;;;;;73.38;26.58;;;;;;;;;;8298637;28;20042;-91
2022/11/18 20:12:43;;;;;;;78.22;27.55;;;;;;;;;;8308780;28;20406;-92
2022/11/18 20:16:53;;;;;;;63.85;25.85;;;;;;;;;;8297096;28;20042;-91
2022/11/18 20:21:07;;;;;;;64.88;25.85;;;;;;;;;;8295304;28;20176;-90
2022/11/18 20:25:10;;;;;;;78.38;29.90;;;;;;;;;;8310917;28;20038;-92
2022/11/18 20:29:13;;;;;;;59.75;26.48;;;;;;;;;;8309548;28;20410;-92
2022/11/18 20:33:18;;;;;;;58.80;24.10;;;;;;;;;;8311265;28;20049;-91
2022/11/18 20:37:22;;;;;;;69.82;26.23;;;;;;;;;;8270151;28;20104;-91
2022/11/18 20:41:29;;;;;;;79.55;28.80;;;;;;;;;;8300541;28;20422;-90
2022/11/18 20:45:37;;;;;;;85.97;28.15;;;;;;;;;;8304603;28;20180;-91
2022/11/18 20:49:42;;;;;;;72.15;30.63;;;;;;;;;;8301386;28;20465;-90
2022/11/18 20:53:46;;;;;;;65.68;28.15;;;;;;;;;;8291802;28;20112;-91
2022/11/18 20:57:49;;;;;;;66.32;26.83;;;;;;;;;;8307787;28;20109;-92
2022/11/18 21:01:52;;;;;;;93.45;30.48;;;;;;;;;;8308320;28;20487;-91
2022/11/18 21:06:01;;;;;;;57.05;21.88;;;;;;;;;;8298880;28;20042;-91
2022/11/18 21:10:06;;;;;;;58.13;22.00;;;;;;;;;;8314585;28;20042;-93
2022/11/18 21:14:28;;;;;;;28.60;14.68;;;;;;;;;;8320994;28;20053;-91
2022/11/18 21:18:33;;;;;;;22.90;11.63;;;;;;;;;;8308196;28;20052;-92
2022/11/18 21:22:38;;;;;;;23.58;11.25;;;;;;;;;;8315280;28;20109;-92
2022/11/18 21:26:42;;;;;;;34.05;13.25;;;;;;;;;;8319589;28;20038;-93
2022/11/18 21:30:48;;;;;;;22.02;11.63;;;;;;;;;;8321914;28;20042;-93
2022/11/18 21:34:55;;;;;;;23.23;10.60;;;;;;;;;;8298649;28;20151;-91
2022/11/18 21:39:19;;;;;;;25.90;11.45;;;;;;;;;;8314970;28;20053;-94
2022/11/18 21:43:22;;;;;;;22.83;12.00;;;;;;;;;;8304861;28;20055;-92
2022/11/18 21:47:26;;;;;;;38.70;17.25;;;;;;;;;;8316340;28;20132;-93
2022/11/18 21:51:38;;;;;;;44.75;20.88;;;;;;;;;;8301889;28;20045;-91
2022/11/18 21:55:42;;;;;;;;;;;;;;;;;;8302242;28;20049;-92
2022/11/18 21:59:45;;;;;;;26.23;11.57;;;;;;;;;;8297115;28;20424;-93
2022/11/18 22:03:50;;;;;;;23.25;11.25;;;;;;;;;;8310383;28;20037;-91
2022/11/18 22:07:54;;;;;;;18.05;9.57;;;;;;;;;;8308069;28;20054;-93
2022/11/18 22:11:59;;;;;;;25.45;12.07;;;;;;;;;;8287550;28;20414;-91
2022/11/18 22:16:05;;;;;;;22.92;11.88;;;;;;;;;;8323803;28;20048;-92
2022/11/18 22:20:09;;;;;;;22.17;10.90;;;;;;;;;;8309560;28;20129;-93
2022/11/18 22:28:40;;;;;;;7.30;4.28;;;;;;;;;;8320112;28;20057;-91
2022/11/18 22:32:43;;;;;;;19.10;10.18;;;;;;;;;;8323466;28;20072;-91
2022/11/18 22:36:50;;;;;;;15.43;8.15;;;;;;;;;;8287939;28;20137;-90
2022/11/18 22:42:46;;;;;;;22.25;9.02;;;;;;;;;;8289394;28;20394;-91
2022/11/18 22:50:22;;;;;;;17.30;8.43;;;;;;;;;;8300573;28;20058;-91
2022/11/18 22:54:29;;;;;;;15.60;7.80;;;;;;;;;;8321186;28;20645;-91
2022/11/18 22:58:38;;;;;;;19.25;8.93;;;;;;;;;;8320441;28;20056;-92
2022/11/18 23:02:43;;;;;;;17.85;9.23;;;;;;;;;;8292187;28;20065;-91
2022/11/18 23:06:49;;;;;;;19.73;10.10;;;;;;;;;;8279227;28;20054;-91
2022/11/18 23:10:54;;;;;;;19.92;9.02;;;;;;;;;;8292563;28;20066;-91
2022/11/18 23:14:58;;;;;;;16.92;8.65;;;;;;;;;;8301522;28;20057;-90
2022/11/18 23:19:24;;;;;;;20.77;9.27;;;;;;;;;;8292301;28;20046;-92
2022/11/18 23:32:17;;;;;;;21.20;10.48;;;;;;;;;;8286462;28;20082;-92
2022/11/18 23:36:31;;;;;;;19.80;8.85;;;;;;;;;;8273345;28;20046;-91
2022/11/18 23:44:54;;;;;;;20.52;10.38;;;;;;;;;;8314342;28;20053;-90
2022/11/18 23:48:57;;;;;;;21.35;9.55;;;;;;;;;;8314429;28;20536;-90
2022/11/18 23:53:11;;;;;;;20.23;10.45;;;;;;;;;;8246275;28;20058;-90
2022/11/18 23:57:16;;;;;;;21.88;10.60;;;;;;;;;;8298645;28;20042;-89
